Observations for SOUTHAMPTON WX CNTR, United Kingdom (EGHI)

EGHI 112220Z 13003KT 9999 SCT034 08/05 Q1021
EGHI 112150Z 10002KT 9999 SCT034 08/04 Q1021
EGHI 112120Z 10002KT 9999 SCT034 07/04 Q1021
EGHI 112050Z VRB01KT 9999 SCT034 07/05 Q1021
EGHI 112020Z 10003KT 9999 SCT034 07/05 Q1022
EGHI 111950Z 09003KT 9999 SCT030 07/05 Q1022
EGHI 111920Z 11003KT 9999 SCT027 07/05 Q1022
EGHI 111850Z 11004KT 070V140 9999 FEW026 SCT037 08/05 Q1022 
EGHI 111820Z 10005KT 9999 FEW026 SCT035 08/04 Q1022 
EGHI 111750Z 10004KT 9999 FEW024 SCT033 08/05 Q1022 
EGHI 111720Z 10004KT 9999 SCT024 BKN033 08/05 Q1022 
EGHI 111650Z 11003KT 9999 SCT022 BKN029 08/05 Q1022 
EGHI 111620Z VRB03KT 9999 BKN022 08/05 Q1022
EGHI 111550Z VRB03KT 9999 FEW022 BKN024 08/05 Q1022 
EGHI 111520Z VRB03KT 9999 BKN023 08/05 Q1022
EGHI 111450Z VRB03KT 9999 BKN026 08/05 Q1023
EGHI 111420Z 11004KT 080V150 9999 FEW025 BKN030 09/05 Q1023 
EGHI 111350Z 11004KT 070V130 9999 FEW024 BKN035 09/05 Q1023 
EGHI 111320Z 12004KT 080V160 9999 FEW025 SCT036 09/05 Q1024 
EGHI 111250Z 14004KT 100V180 9999 FEW025 10/06 Q1024
EGHI 111220Z VRB03KT 9999 FEW025 09/05 Q1024
EGHI 111150Z VRB03KT 9999 FEW025 08/05 Q1024
EGHI 111120Z VRB03KT 9999 FEW025 07/05 Q1025
EGHI 111050Z 00000KT CAVOK 06/05 Q1025  
EGHI 111020Z 05001KT 9999 FEW040 04/04 Q1025
EGHI 110950Z 00000KT 9999 FEW040 04/03 Q1025
EGHI 110920Z 00000KT 9999 VCFG FEW033 03/02 Q1025   
EGHI 110850Z 00000KT 9000 VCFG SCT036 00/M00 Q1026  
EGHI 110820Z 00000KT 9000 VCFG BKN036 00/M00 Q1026  
EGHI 110750Z 00000KT 9000 VCFG BKN035 M00/M00 Q1026 
EGHI 110720Z VRB01KT 9000 VCFG BKN035 M00/M01 Q1026 
EGHI 110650Z 00000KT 9000 MIFG SCT030 M01/M01 Q1026 
EGHI 110620Z 00000KT 9000 MIFG FEW030 M01/M02 Q1026 
EGHI 110550Z 00000KT 9000 R20/0900 MIFG FEW030 M01/M01 Q1026
EGHI 102220Z 36001KT 9000 NSC 03/02 Q1028   
EGHI 102150Z 00000KT 9000 NSC 04/03 Q1028